sensor_id;sensor_type;location;lat;lon;timestamp;pressure;altitude;pressure_sealevel;temperature;humidity
6899;BME280;3488;42.616;23.350;2023-04-06T00:01:10;61845.50;;;-1.46;100.00
6899;BME280;3488;42.616;23.350;2023-04-06T00:03:38;61868.84;;;-1.30;100.00
6899;BME280;3488;42.616;23.350;2023-04-06T00:06:06;61866.69;;;-1.37;100.00
6899;BME280;3488;42.616;23.350;2023-04-06T00:08:34;61895.06;;;-0.99;100.00
6899;BME280;3488;42.616;23.350;2023-04-06T00:11:02;61887.28;;;-1.12;100.00
6899;BME280;3488;42.616;23.350;2023-04-06T00:13:29;61870.38;;;-1.29;100.00
6899;BME280;3488;42.616;23.350;2023-04-06T00:15:56;61863.28;;;-1.33;100.00
6899;BME280;3488;42.616;23.350;2023-04-06T00:18:27;61868.00;;;-1.24;100.00
6899;BME280;3488;42.616;23.350;2023-04-06T00:20:54;61884.28;;;-1.12;100.00
6899;BME280;3488;42.616;23.350;2023-04-06T00:23:22;61856.13;;;-1.40;100.00
6899;BME280;3488;42.616;23.350;2023-04-06T00:25:56;61844.41;;;-1.49;100.00
6899;BME280;3488;42.616;23.350;2023-04-06T00:28:30;61825.06;;;-1.66;100.00
6899;BME280;3488;42.616;23.350;2023-04-06T00:30:58;61844.88;;;-1.51;100.00
6899;BME280;3488;42.616;23.350;2023-04-06T00:33:28;61868.97;;;-1.25;100.00
6899;BME280;3488;42.616;23.350;2023-04-06T00:35:55;61824.91;;;-1.71;100.00
6899;BME280;3488;42.616;23.350;2023-04-06T00:38:26;61859.84;;;-1.32;100.00
6899;BME280;3488;42.616;23.350;2023-04-06T00:40:55;61843.91;;;-1.50;100.00
6899;BME280;3488;42.616;23.350;2023-04-06T00:43:22;61838.75;;;-1.57;100.00
6899;BME280;3488;42.616;23.350;2023-04-06T00:45:50;61866.94;;;-1.27;100.00
6899;BME280;3488;42.616;23.350;2023-04-06T00:48:17;61872.88;;;-1.29;100.00
6899;BME280;3488;42.616;23.350;2023-04-06T00:50:45;61845.44;;;-1.48;100.00
6899;BME280;3488;42.616;23.350;2023-04-06T00:53:12;61867.38;;;-1.29;100.00
6899;BME280;3488;42.616;23.350;2023-04-06T00:55:40;61843.34;;;-1.53;100.00
6899;BME280;3488;42.616;23.350;2023-04-06T00:58:09;61856.13;;;-1.40;100.00
6899;BME280;3488;42.616;23.350;2023-04-06T01:00:36;61876.03;;;-1.23;100.00
6899;BME280;3488;42.616;23.350;2023-04-06T01:03:05;61863.41;;;-1.28;100.00
6899;BME280;3488;42.616;23.350;2023-04-06T01:05:33;61854.09;;;-1.42;100.00
6899;BME280;3488;42.616;23.350;2023-04-06T01:08:05;61849.03;;;-1.45;100.00
6899;BME280;3488;42.616;23.350;2023-04-06T01:10:34;61854.13;;;-1.40;100.00
6899;BME280;3488;42.616;23.350;2023-04-06T01:13:02;61857.09;;;-1.42;100.00
6899;BME280;3488;42.616;23.350;2023-04-06T01:15:32;61862.25;;;-1.34;100.00
6899;BME280;3488;42.616;23.350;2023-04-06T01:18:01;61833.16;;;-1.60;100.00
6899;BME280;3488;42.616;23.350;2023-04-06T01:20:30;61887.28;;;-1.12;100.00
6899;BME280;3488;42.616;23.350;2023-04-06T01:22:59;61855.16;;;-1.39;100.00
6899;BME280;3488;42.616;23.350;2023-04-06T01:25:27;61869.38;;;-1.30;100.00
6899;BME280;3488;42.616;23.350;2023-04-06T01:27:54;61867.97;;;-1.26;100.00
6899;BME280;3488;42.616;23.350;2023-04-06T01:30:21;61887.78;;;-1.11;100.00
6899;BME280;3488;42.616;23.350;2023-04-06T01:32:51;61884.28;;;-1.12;100.00
6899;BME280;3488;42.616;23.350;2023-04-06T01:35:20;61853.56;;;-1.43;100.00
6899;BME280;3488;42.616;23.350;2023-04-06T01:37:48;61873.66;;;-1.18;100.00
6899;BME280;3488;42.616;23.350;2023-04-06T01:40:19;61889.50;;;-1.02;100.00
6899;BME280;3488;42.616;23.350;2023-04-06T01:42:47;61880.28;;;-1.11;100.00
6899;BME280;3488;42.616;23.350;2023-04-06T01:45:14;61902.13;;;-0.97;100.00
6899;BME280;3488;42.616;23.350;2023-04-06T01:47:41;61888.47;;;-1.03;100.00
6899;BME280;3488;42.616;23.350;2023-04-06T01:50:09;61896.03;;;-1.01;100.00
6899;BME280;3488;42.616;23.350;2023-04-06T01:52:38;61859.31;;;-1.32;100.00
6899;BME280;3488;42.616;23.350;2023-04-06T01:55:06;61874.50;;;-1.25;100.00
6899;BME280;3488;42.616;23.350;2023-04-06T01:57:38;61890.47;;;-1.04;100.00
6899;BME280;3488;42.616;23.350;2023-04-06T02:00:07;61887.34;;;-1.09;100.00
6899;BME280;3488;42.616;23.350;2023-04-06T02:02:34;61886.91;;;-1.07;100.00
6899;BME280;3488;42.616;23.350;2023-04-06T02:05:01;61887.38;;;-1.07;100.00
6899;BME280;3488;42.616;23.350;2023-04-06T02:07:28;61890.94;;;-1.06;100.00
6899;BME280;3488;42.616;23.350;2023-04-06T02:09:58;61869.38;;;-1.30;100.00
6899;BME280;3488;42.616;23.350;2023-04-06T02:12:25;61896.59;;;-0.98;100.00
6899;BME280;3488;42.616;23.350;2023-04-06T02:14:54;61900.63;;;-0.96;100.00
6899;BME280;3488;42.616;23.350;2023-04-06T02:17:22;61900.16;;;-0.97;100.00
6899;BME280;3488;42.616;23.350;2023-04-06T02:19:50;61907.31;;;-0.90;100.00
6899;BME280;3488;42.616;23.350;2023-04-06T02:22:17;61905.75;;;-0.91;100.00
6899;BME280;3488;42.616;23.350;2023-04-06T02:24:47;61916.47;;;-0.83;100.00
6899;BME280;3488;42.616;23.350;2023-04-06T02:27:14;61924.25;;;-0.71;100.00
6899;BME280;3488;42.616;23.350;2023-04-06T02:29:41;61924.72;;;-0.73;100.00
6899;BME280;3488;42.616;23.350;2023-04-06T02:32:10;61927.25;;;-0.70;100.00
6899;BME280;3488;42.616;23.350;2023-04-06T02:34:37;61929.84;;;-0.68;100.00
6899;BME280;3488;42.616;23.350;2023-04-06T02:37:04;61943.69;;;-0.52;100.00
6899;BME280;3488;42.616;23.350;2023-04-06T02:39:31;61943.13;;;-0.55;100.00
6899;BME280;3488;42.616;23.350;2023-04-06T02:41:58;61945.19;;;-0.53;100.00
6899;BME280;3488;42.616;23.350;2023-04-06T02:44:25;61934.44;;;-0.63;100.00
6899;BME280;3488;42.616;23.350;2023-04-06T02:46:55;61928.22;;;-0.72;100.00
6899;BME280;3488;42.616;23.350;2023-04-06T02:49:24;61940.00;;;-0.60;100.00
6899;BME280;3488;42.616;23.350;2023-04-06T02:51:52;61936.56;;;-0.59;100.00
6899;BME280;3488;42.616;23.350;2023-04-06T02:54:20;61927.34;;;-0.68;100.00
6899;BME280;3488;42.616;23.350;2023-04-06T02:56:47;61904.16;;;-0.95;100.00
6899;BME280;3488;42.616;23.350;2023-04-06T02:59:15;61950.75;;;-0.50;100.00
6899;BME280;3488;42.616;23.350;2023-04-06T03:01:45;61936.88;;;-0.66;100.00
6899;BME280;3488;42.616;23.350;2023-04-06T03:04:12;61911.91;;;-0.85;100.00
6899;BME280;3488;42.616;23.350;2023-04-06T03:06:41;61946.16;;;-0.54;100.00
6899;BME280;3488;42.616;23.350;2023-04-06T03:09:08;61948.78;;;-0.49;100.00
6899;BME280;3488;42.616;23.350;2023-04-06T03:11:35;61944.75;;;-0.51;100.00
6899;BME280;3488;42.616;23.350;2023-04-06T03:14:02;61938.53;;;-0.59;100.00
6899;BME280;3488;42.616;23.350;2023-04-06T03:16:31;61946.19;;;-0.52;100.00
6899;BME280;3488;42.616;23.350;2023-04-06T03:18:59;61935.59;;;-0.57;100.00
6899;BME280;3488;42.616;23.350;2023-04-06T03:21:26;61945.72;;;-0.52;100.00
6899;BME280;3488;42.616;23.350;2023-04-06T03:23:55;61909.97;;;-0.82;100.00
6899;BME280;3488;42.616;23.350;2023-04-06T03:26:26;61913.50;;;-0.81;100.00
6899;BME280;3488;42.616;23.350;2023-04-06T03:28:53;61947.28;;;-0.48;100.00
6899;BME280;3488;42.616;23.350;2023-04-06T03:31:20;61934.94;;;-0.63;100.00
6899;BME280;3488;42.616;23.350;2023-04-06T03:33:48;61930.91;;;-0.64;100.00
6899;BME280;3488;42.616;23.350;2023-04-06T03:36:15;61923.75;;;-0.71;100.00
6899;BME280;3488;42.616;23.350;2023-04-06T03:38:42;61935.97;;;-0.62;100.00
6899;BME280;3488;42.616;23.350;2023-04-06T03:41:11;61923.19;;;-0.74;100.00
6899;BME280;3488;42.616;23.350;2023-04-06T03:43:38;61946.66;;;-0.54;100.00
6899;BME280;3488;42.616;23.350;2023-04-06T03:46:05;61932.38;;;-0.65;100.00
6899;BME280;3488;42.616;23.350;2023-04-06T03:48:32;61920.69;;;-0.74;100.00
6899;BME280;3488;42.616;23.350;2023-04-06T03:51:00;61917.66;;;-0.75;100.00
6899;BME280;3488;42.616;23.350;2023-04-06T03:53:27;61937.97;;;-0.62;100.00
6899;BME280;3488;42.616;23.350;2023-04-06T03:55:54;61914.94;;;-0.85;100.00
6899;BME280;3488;42.616;23.350;2023-04-06T03:58:27;61932.97;;;-0.62;100.00
6899;BME280;3488;42.616;23.350;2023-04-06T04:00:54;61924.72;;;-0.73;100.00
6899;BME280;3488;42.616;23.350;2023-04-06T04:03:21;61947.69;;;-0.53;100.00
6899;BME280;3488;42.616;23.350;2023-04-06T04:05:49;61948.66;;;-0.54;100.00
6899;BME280;3488;42.616;23.350;2023-04-06T04:08:16;61922.22;;;-0.73;100.00
6899;BME280;3488;42.616;23.350;2023-04-06T04:10:43;61935.53;;;-0.60;100.00
6899;BME280;3488;42.616;23.350;2023-04-06T04:13:10;61943.78;;;-0.49;99.95
6899;BME280;3488;42.616;23.350;2023-04-06T04:15:39;61954.53;;;-0.39;99.44
6899;BME280;3488;42.616;23.350;2023-04-06T04:18:07;61969.25;;;-0.29;98.97
6899;BME280;3488;42.616;23.350;2023-04-06T04:20:34;61942.63;;;-0.55;99.42
6899;BME280;3488;42.616;23.350;2023-04-06T04:23:01;61964.09;;;-0.37;99.54
6899;BME280;3488;42.616;23.350;2023-04-06T04:25:28;61936.47;;;-0.61;98.88
6899;BME280;3488;42.616;23.350;2023-04-06T04:27:56;61976.94;;;-0.22;98.76
6899;BME280;3488;42.616;23.350;2023-04-06T04:30:23;61992.81;;;-0.06;99.15
6899;BME280;3488;42.616;23.350;2023-04-06T04:32:52;61959.97;;;-0.41;98.33
6899;BME280;3488;42.616;23.350;2023-04-06T04:35:20;61992.31;;;-0.07;99.03
6899;BME280;3488;42.616;23.350;2023-04-06T04:37:47;61980.59;;;-0.16;98.05
6899;BME280;3488;42.616;23.350;2023-04-06T04:40:14;62012.34;;;0.16;97.45
6899;BME280;3488;42.616;23.350;2023-04-06T04:42:42;62014.41;;;0.18;97.20
6899;BME280;3488;42.616;23.350;2023-04-06T04:45:10;62024.72;;;0.30;97.67
6899;BME280;3488;42.616;23.350;2023-04-06T04:47:37;62018.44;;;0.19;96.62
6899;BME280;3488;42.616;23.350;2023-04-06T04:50:06;62021.06;;;0.24;97.26
6899;BME280;3488;42.616;23.350;2023-04-06T04:52:34;62034.31;;;0.35;97.14
6899;BME280;3488;42.616;23.350;2023-04-06T04:55:01;62012.28;;;0.13;95.76
6899;BME280;3488;42.616;23.350;2023-04-06T04:57:28;62043.56;;;0.44;96.29
6899;BME280;3488;42.616;23.350;2023-04-06T04:59:56;62047.66;;;0.48;96.57
6899;BME280;3488;42.616;23.350;2023-04-06T05:02:27;62032.78;;;0.33;93.74
6899;BME280;3488;42.616;23.350;2023-04-06T05:04:54;62057.91;;;0.58;92.52
6899;BME280;3488;42.616;23.350;2023-04-06T05:07:23;62045.03;;;0.43;92.72
6899;BME280;3488;42.616;23.350;2023-04-06T05:09:51;62026.13;;;0.27;93.45
6899;BME280;3488;42.616;23.350;2023-04-06T05:12:21;62037.91;;;0.38;93.83
6899;BME280;3488;42.616;23.350;2023-04-06T05:14:48;62043.00;;;0.41;93.01
6899;BME280;3488;42.616;23.350;2023-04-06T05:17:15;62046.69;;;0.49;92.58
6899;BME280;3488;42.616;23.350;2023-04-06T05:19:43;62049.72;;;0.50;92.87
6899;BME280;3488;42.616;23.350;2023-04-06T05:22:10;62052.25;;;0.52;92.17
6899;BME280;3488;42.616;23.350;2023-04-06T05:24:41;62060.41;;;0.58;92.17
6899;BME280;3488;42.616;23.350;2023-04-06T05:27:08;62066.09;;;0.66;92.31
6899;BME280;3488;42.616;23.350;2023-04-06T05:29:35;62074.81;;;0.74;91.37
6899;BME280;3488;42.616;23.350;2023-04-06T05:32:03;62085.53;;;0.82;91.85
6899;BME280;3488;42.616;23.350;2023-04-06T05:34:31;62077.97;;;0.80;92.85
6899;BME280;3488;42.616;23.350;2023-04-06T05:36:58;62085.03;;;0.82;92.66
6899;BME280;3488;42.616;23.350;2023-04-06T05:39:26;62082.13;;;0.86;92.66
6899;BME280;3488;42.616;23.350;2023-04-06T05:41:54;62085.66;;;0.87;91.33
6899;BME280;3488;42.616;23.350;2023-04-06T05:44:22;62098.34;;;0.95;91.35
6899;BME280;3488;42.616;23.350;2023-04-06T05:46:49;62090.78;;;0.92;91.37
6899;BME280;3488;42.616;23.350;2023-04-06T05:49:16;62079.44;;;0.79;91.38
6899;BME280;3488;42.616;23.350;2023-04-06T05:51:43;62095.41;;;0.97;91.02
6899;BME280;3488;42.616;23.350;2023-04-06T05:54:10;62082.59;;;0.84;91.01
6899;BME280;3488;42.616;23.350;2023-04-06T05:56:37;62098.41;;;0.97;91.07
6899;BME280;3488;42.616;23.350;2023-04-06T05:59:08;62120.53;;;1.22;90.47
6899;BME280;3488;42.616;23.350;2023-04-06T06:01:35;62110.22;;;1.09;90.76
6899;BME280;3488;42.616;23.350;2023-04-06T06:04:02;62114.31;;;1.13;90.70
6899;BME280;3488;42.616;23.350;2023-04-06T06:06:30;62082.13;;;0.86;93.27
6899;BME280;3488;42.616;23.350;2023-04-06T06:08:58;62104.50;;;1.01;93.60
6899;BME280;3488;42.616;23.350;2023-04-06T06:11:26;62108.09;;;1.04;93.18
6899;BME280;3488;42.616;23.350;2023-04-06T06:13:53;62129.25;;;1.30;91.72
6899;BME280;3488;42.616;23.350;2023-04-06T06:16:22;62127.66;;;1.26;93.13
6899;BME280;3488;42.616;23.350;2023-04-06T06:18:49;62135.97;;;1.39;92.89
6899;BME280;3488;42.616;23.350;2023-04-06T06:21:16;62123.94;;;1.17;91.66
6899;BME280;3488;42.616;23.350;2023-04-06T06:23:43;62141.03;;;1.42;90.21
6899;BME280;3488;42.616;23.350;2023-04-06T06:26:12;62140.47;;;1.39;91.89
6899;BME280;3488;42.616;23.350;2023-04-06T06:28:39;62150.28;;;1.51;91.14
6899;BME280;3488;42.616;23.350;2023-04-06T06:31:06;62152.69;;;1.46;91.00
6899;BME280;3488;42.616;23.350;2023-04-06T06:33:35;62140.44;;;1.36;89.92
6899;BME280;3488;42.616;23.350;2023-04-06T06:36:02;62154.78;;;1.50;90.88
6899;BME280;3488;42.616;23.350;2023-04-06T06:38:29;62150.81;;;1.51;89.95
6899;BME280;3488;42.616;23.350;2023-04-06T06:40:56;62175.84;;;1.71;87.90
6899;BME280;3488;42.616;23.350;2023-04-06T06:43:24;62185.13;;;1.82;85.96
6899;BME280;3488;42.616;23.350;2023-04-06T06:45:51;62205.66;;;2.02;85.84
6899;BME280;3488;42.616;23.350;2023-04-06T06:48:18;62220.47;;;2.14;83.53
6899;BME280;3488;42.616;23.350;2023-04-06T06:50:48;62205.09;;;1.99;83.55
6899;BME280;3488;42.616;23.350;2023-04-06T06:53:15;62210.28;;;2.07;83.65
6899;BME280;3488;42.616;23.350;2023-04-06T06:55:42;62210.75;;;2.05;85.02
6899;BME280;3488;42.616;23.350;2023-04-06T06:58:10;62226.19;;;2.22;85.94
6899;BME280;3488;42.616;23.350;2023-04-06T07:00:38;62223.63;;;2.20;84.08
6899;BME280;3488;42.616;23.350;2023-04-06T07:03:05;62233.88;;;2.30;82.19
6899;BME280;3488;42.616;23.350;2023-04-06T07:05:32;62197.97;;;1.95;84.01
6899;BME280;3488;42.616;23.350;2023-04-06T07:08:01;62219.50;;;2.16;83.83
6899;BME280;3488;42.616;23.350;2023-04-06T07:10:28;62220.66;;;2.22;83.76
6899;BME280;3488;42.616;23.350;2023-04-06T07:12:55;62234.94;;;2.31;83.76
6899;BME280;3488;42.616;23.350;2023-04-06T07:15:22;62256.91;;;2.48;83.94
6899;BME280;3488;42.616;23.350;2023-04-06T07:17:49;62209.34;;;2.11;86.72
6899;BME280;3488;42.616;23.350;2023-04-06T07:20:17;62235.44;;;2.31;84.49
6899;BME280;3488;42.616;23.350;2023-04-06T07:22:44;62239.53;;;2.35;85.41
6899;BME280;3488;42.616;23.350;2023-04-06T07:25:13;62206.69;;;2.03;84.93
6899;BME280;3488;42.616;23.350;2023-04-06T07:27:40;62213.28;;;2.07;85.55
6899;BME280;3488;42.616;23.350;2023-04-06T07:30:08;62242.13;;;2.38;83.57
6899;BME280;3488;42.616;23.350;2023-04-06T07:32:37;62262.13;;;2.58;84.09
6899;BME280;3488;42.616;23.350;2023-04-06T07:35:05;62220.09;;;2.19;84.70
6899;BME280;3488;42.616;23.350;2023-04-06T07:37:32;62230.41;;;2.31;85.45
6899;BME280;3488;42.616;23.350;2023-04-06T07:39:59;62260.59;;;2.56;86.29
6899;BME280;3488;42.616;23.350;2023-04-06T07:42:28;62284.28;;;2.82;80.49
6899;BME280;3488;42.616;23.350;2023-04-06T07:44:54;62282.75;;;2.80;82.62
6899;BME280;3488;42.616;23.350;2023-04-06T07:47:23;62250.38;;;2.49;83.69
6899;BME280;3488;42.616;23.350;2023-04-06T07:49:50;62261.69;;;2.60;83.49
6899;BME280;3488;42.616;23.350;2023-04-06T07:52:17;62274.47;;;2.70;83.06
6899;BME280;3488;42.616;23.350;2023-04-06T07:54:44;62253.41;;;2.49;82.03
6899;BME280;3488;42.616;23.350;2023-04-06T07:57:11;62263.75;;;2.62;84.01
6899;BME280;3488;42.616;23.350;2023-04-06T07:59:40;62253.53;;;2.54;81.79
6899;BME280;3488;42.616;23.350;2023-04-06T08:02:07;62309.53;;;3.09;80.33
6899;BME280;3488;42.616;23.350;2023-04-06T08:04:36;62313.53;;;3.08;81.31
6899;BME280;3488;42.616;23.350;2023-04-06T08:07:03;62311.00;;;3.08;78.82
6899;BME280;3488;42.616;23.350;2023-04-06T08:09:34;62350.53;;;3.44;75.46
6899;BME280;3488;42.616;23.350;2023-04-06T08:12:01;62353.72;;;3.52;77.39
6899;BME280;3488;42.616;23.350;2023-04-06T08:14:28;62361.78;;;3.52;75.39
6899;BME280;3488;42.616;23.350;2023-04-06T08:16:57;62384.34;;;3.72;73.11
6899;BME280;3488;42.616;23.350;2023-04-06T08:19:24;62389.59;;;3.82;71.41
6899;BME280;3488;42.616;23.350;2023-04-06T08:21:51;62394.28;;;3.89;71.02
6899;BME280;3488;42.616;23.350;2023-04-06T08:24:18;62391.66;;;3.84;69.72
6899;BME280;3488;42.616;23.350;2023-04-06T08:26:45;62377.38;;;3.75;71.47
6899;BME280;3488;42.616;23.350;2023-04-06T08:29:12;62342.75;;;3.34;73.99
6899;BME280;3488;42.616;23.350;2023-04-06T08:31:39;62355.03;;;3.43;72.12
6899;BME280;3488;42.616;23.350;2023-04-06T08:34:08;62303.28;;;3.00;75.59
6899;BME280;3488;42.616;23.350;2023-04-06T08:36:35;62329.97;;;3.24;74.03
6899;BME280;3488;42.616;23.350;2023-04-06T08:39:04;62360.81;;;3.54;71.95
6899;BME280;3488;42.616;23.350;2023-04-06T08:41:31;62362.84;;;3.56;70.47
6899;BME280;3488;42.616;23.350;2023-04-06T08:43:59;62348.06;;;3.46;71.80
6899;BME280;3488;42.616;23.350;2023-04-06T08:46:27;62337.63;;;3.29;71.84
6899;BME280;3488;42.616;23.350;2023-04-06T08:48:56;62320.53;;;3.07;75.77
6899;BME280;3488;42.616;23.350;2023-04-06T08:51:25;62291.44;;;2.86;76.70
6899;BME280;3488;42.616;23.350;2023-04-06T08:53:52;62328.44;;;3.22;75.96
6899;BME280;3488;42.616;23.350;2023-04-06T08:56:22;62332.06;;;3.28;75.87
6899;BME280;3488;42.616;23.350;2023-04-06T08:58:49;62324.84;;;3.19;75.92
6899;BME280;3488;42.616;23.350;2023-04-06T09:01:20;62316.09;;;3.10;77.82
6899;BME280;3488;42.616;23.350;2023-04-06T09:03:49;62337.66;;;3.31;73.03
6899;BME280;3488;42.616;23.350;2023-04-06T09:06:18;62359.69;;;3.48;70.60
6899;BME280;3488;42.616;23.350;2023-04-06T09:08:49;62372.53;;;3.61;74.87
6899;BME280;3488;42.616;23.350;2023-04-06T09:11:16;62386.53;;;3.79;69.43
6899;BME280;3488;42.616;23.350;2023-04-06T09:13:47;62400.88;;;3.91;68.38
6899;BME280;3488;42.616;23.350;2023-04-06T09:16:15;62391.59;;;3.82;68.97
6899;BME280;3488;42.616;23.350;2023-04-06T09:18:42;62388.06;;;3.81;70.95
6899;BME280;3488;42.616;23.350;2023-04-06T09:21:10;62405.53;;;3.98;71.84
6899;BME280;3488;42.616;23.350;2023-04-06T09:23:37;62392.63;;;3.83;69.30
6899;BME280;3488;42.616;23.350;2023-04-06T09:26:09;62405.53;;;3.98;67.58
6899;BME280;3488;42.616;23.350;2023-04-06T09:28:44;62415.31;;;4.07;67.00
6899;BME280;3488;42.616;23.350;2023-04-06T09:31:12;62427.66;;;4.19;69.90
6899;BME280;3488;42.616;23.350;2023-04-06T09:33:41;62436.34;;;4.25;65.61
6899;BME280;3488;42.616;23.350;2023-04-06T09:36:08;62446.69;;;4.38;66.25
6899;BME280;3488;42.616;23.350;2023-04-06T09:38:51;62445.09;;;4.34;66.33
6899;BME280;3488;42.616;23.350;2023-04-06T09:41:25;62451.84;;;4.43;66.53
6899;BME280;3488;42.616;23.350;2023-04-06T09:44:02;62447.69;;;4.36;63.61
6899;BME280;3488;42.616;23.350;2023-04-06T09:46:32;62457.63;;;4.53;63.47
6899;BME280;3488;42.616;23.350;2023-04-06T09:49:00;62457.03;;;4.50;64.24
6899;BME280;3488;42.616;23.350;2023-04-06T09:51:30;62445.19;;;4.39;66.16
6899;BME280;3488;42.616;23.350;2023-04-06T09:53:59;62470.88;;;4.61;66.86
6899;BME280;3488;42.616;23.350;2023-04-06T09:56:32;62435.91;;;4.27;66.36
6899;BME280;3488;42.616;23.350;2023-04-06T09:59:02;62448.28;;;4.42;65.45
6899;BME280;3488;42.616;23.350;2023-04-06T10:01:33;62461.06;;;4.49;63.97
6899;BME280;3488;42.616;23.350;2023-04-06T10:04:10;62462.06;;;4.50;66.26
6899;BME280;3488;42.616;23.350;2023-04-06T10:06:42;62463.13;;;4.51;64.22
6899;BME280;3488;42.616;23.350;2023-04-06T10:09:11;62410.13;;;4.00;69.29
6899;BME280;3488;42.616;23.350;2023-04-06T10:11:41;62404.56;;;3.99;68.15
6899;BME280;3488;42.616;23.350;2023-04-06T10:14:09;62420.94;;;4.10;68.47
6899;BME280;3488;42.616;23.350;2023-04-06T10:16:40;62451.88;;;4.45;67.42
6899;BME280;3488;42.616;23.350;2023-04-06T10:19:13;62469.81;;;4.58;65.13
6899;BME280;3488;42.616;23.350;2023-04-06T10:21:47;62450.88;;;4.44;64.69
6899;BME280;3488;42.616;23.350;2023-04-06T10:24:16;62488.94;;;4.82;62.74
6899;BME280;3488;42.616;23.350;2023-04-06T10:26:56;62489.34;;;4.77;60.53
6899;BME280;3488;42.616;23.350;2023-04-06T10:29:24;62485.84;;;4.79;64.79
6899;BME280;3488;42.616;23.350;2023-04-06T10:31:51;62473.97;;;4.64;63.90
6899;BME280;3488;42.616;23.350;2023-04-06T10:34:21;62463.13;;;4.51;64.58
6899;BME280;3488;42.616;23.350;2023-04-06T10:36:48;62451.84;;;4.43;63.70
6899;BME280;3488;42.616;23.350;2023-04-06T10:39:24;62472.44;;;4.63;63.04
6899;BME280;3488;42.616;23.350;2023-04-06T10:41:54;62462.66;;;4.53;63.06
6899;BME280;3488;42.616;23.350;2023-04-06T10:44:22;62449.31;;;4.43;65.20
6899;BME280;3488;42.616;23.350;2023-04-06T10:46:53;62466.81;;;4.60;64.26
6899;BME280;3488;42.616;23.350;2023-04-06T10:49:22;62464.75;;;4.58;62.96
6899;BME280;3488;42.616;23.350;2023-04-06T10:51:52;62499.16;;;4.87;64.45
6899;BME280;3488;42.616;23.350;2023-04-06T10:54:21;62504.41;;;4.97;61.61
6899;BME280;3488;42.616;23.350;2023-04-06T10:56:49;62515.09;;;5.02;60.22
6899;BME280;3488;42.616;23.350;2023-04-06T10:59:20;62503.25;;;4.91;60.71
6899;BME280;3488;42.616;23.350;2023-04-06T11:01:48;62461.56;;;4.50;63.53
6899;BME280;3488;42.616;23.350;2023-04-06T11:04:16;62468.25;;;4.56;64.09
6899;BME280;3488;42.616;23.350;2023-04-06T11:06:47;62494.56;;;4.85;63.22
6899;BME280;3488;42.616;23.350;2023-04-06T11:09:24;62489.34;;;4.77;64.65
6899;BME280;3488;42.616;23.350;2023-04-06T11:11:52;62454.41;;;4.45;66.61
6899;BME280;3488;42.616;23.350;2023-04-06T11:14:22;62399.94;;;3.95;67.86
6899;BME280;3488;42.616;23.350;2023-04-06T11:16:50;62373.66;;;3.67;70.67
6899;BME280;3488;42.616;23.350;2023-04-06T11:19:17;62392.22;;;3.87;68.21
6899;BME280;3488;42.616;23.350;2023-04-06T11:21:46;62391.19;;;3.86;68.71
6899;BME280;3488;42.616;23.350;2023-04-06T11:24:15;62384.00;;;3.79;70.45
6899;BME280;3488;42.616;23.350;2023-04-06T11:26:44;62412.69;;;4.02;66.63
6899;BME280;3488;42.616;23.350;2023-04-06T11:29:13;62435.44;;;4.29;67.38
6899;BME280;3488;42.616;23.350;2023-04-06T11:31:44;62456.47;;;4.47;65.19
6899;BME280;3488;42.616;23.350;2023-04-06T11:34:12;62423.03;;;4.15;65.31
6899;BME280;3488;42.616;23.350;2023-04-06T11:36:43;62413.78;;;4.06;67.96
6899;BME280;3488;42.616;23.350;2023-04-06T11:39:12;62449.16;;;4.35;66.84
6899;BME280;3488;42.616;23.350;2023-04-06T11:41:40;62412.69;;;4.02;64.67
6899;BME280;3488;42.616;23.350;2023-04-06T11:44:07;62412.78;;;4.07;65.62
6899;BME280;3488;42.616;23.350;2023-04-06T11:46:34;62427.19;;;4.21;65.41
6899;BME280;3488;42.616;23.350;2023-04-06T11:49:02;62436.41;;;4.28;64.56
6899;BME280;3488;42.616;23.350;2023-04-06T11:51:29;62427.09;;;4.16;64.98
6899;BME280;3488;42.616;23.350;2023-04-06T11:53:57;62470.38;;;4.61;64.27
6899;BME280;3488;42.616;23.350;2023-04-06T11:56:26;62503.88;;;4.96;62.35
6899;BME280;3488;42.616;23.350;2023-04-06T11:58:55;62504.28;;;4.92;62.73
6899;BME280;3488;42.616;23.350;2023-04-06T12:01:22;62545.53;;;5.34;60.33
6899;BME280;3488;42.616;23.350;2023-04-06T12:03:50;62508.31;;;4.91;62.52
6899;BME280;3488;42.616;23.350;2023-04-06T12:06:19;62458.47;;;4.47;62.79
6899;BME280;3488;42.616;23.350;2023-04-06T12:08:46;62449.78;;;4.41;64.19
6899;BME280;3488;42.616;23.350;2023-04-06T12:11:13;62487.34;;;4.78;63.02
6899;BME280;3488;42.616;23.350;2023-04-06T12:13:41;62472.38;;;4.60;63.38
6899;BME280;3488;42.616;23.350;2023-04-06T12:16:08;62459.63;;;4.53;63.97
6899;BME280;3488;42.616;23.350;2023-04-06T12:18:34;62476.38;;;4.59;65.67
6899;BME280;3488;42.616;23.350;2023-04-06T12:21:01;62449.72;;;4.38;63.64
6899;BME280;3488;42.616;23.350;2023-04-06T12:23:30;62433.78;;;4.23;63.83
6899;BME280;3488;42.616;23.350;2023-04-06T12:25:58;62440.53;;;4.32;62.77
6899;BME280;3488;42.616;23.350;2023-04-06T12:28:25;62428.59;;;4.15;63.78
6899;BME280;3488;42.616;23.350;2023-04-06T12:30:52;62458.53;;;4.49;63.96
6899;BME280;3488;42.616;23.350;2023-04-06T12:33:22;62426.63;;;4.18;62.69
6899;BME280;3488;42.616;23.350;2023-04-06T12:35:48;62451.88;;;4.45;63.70
6899;BME280;3488;42.616;23.350;2023-04-06T12:38:16;62476.09;;;4.69;63.68
6899;BME280;3488;42.616;23.350;2023-04-06T12:40:44;62489.81;;;4.75;64.01
6899;BME280;3488;42.616;23.350;2023-04-06T12:43:11;62473.47;;;4.64;62.96
6899;BME280;3488;42.616;23.350;2023-04-06T12:45:39;62459.56;;;4.50;64.11
6899;BME280;3488;42.616;23.350;2023-04-06T12:48:07;62451.31;;;4.42;64.35
6899;BME280;3488;42.616;23.350;2023-04-06T12:50:34;62430.22;;;4.22;64.90
6899;BME280;3488;42.616;23.350;2023-04-06T12:53:01;62424.47;;;4.11;65.29
6899;BME280;3488;42.616;23.350;2023-04-06T12:55:30;62426.59;;;4.16;66.15
6899;BME280;3488;42.616;23.350;2023-04-06T12:58:00;62409.72;;;4.04;67.52
6899;BME280;3488;42.616;23.350;2023-04-06T13:00:28;62417.38;;;4.09;66.72
6899;BME280;3488;42.616;23.350;2023-04-06T13:02:56;62439.50;;;4.31;64.88
6899;BME280;3488;42.616;23.350;2023-04-06T13:05:23;62454.41;;;4.45;61.44
6899;BME280;3488;42.616;23.350;2023-04-06T13:07:50;62411.16;;;4.01;61.84
6899;BME280;3488;42.616;23.350;2023-04-06T13:10:17;62418.88;;;4.08;62.74
6899;BME280;3488;42.616;23.350;2023-04-06T13:12:44;62406.00;;;3.96;63.04
6899;BME280;3488;42.616;23.350;2023-04-06T13:15:12;62401.91;;;3.92;62.29
6899;BME280;3488;42.616;23.350;2023-04-06T13:17:39;62393.19;;;3.86;62.49
6899;BME280;3488;42.616;23.350;2023-04-06T13:20:08;62396.81;;;3.89;63.04